Time;durP1;ratioP1;P1;durP2;ratioP2;P2;SDS_P1;SDS_P2;PMS_P1;PMS_P2;Temp;Humidity;BMP_temperature;BMP_pressure;BME280_temperature;BME280_humidity;BME280_pressure;Samples;Min_cycle;Max_cycle;Signal;HPM_P1;HPM_P2
2022/02/04 00:23:41;;;;;;;;;;;6.90;99.90;;;;;;5216320;27;29710;-81
2022/02/04 00:26:21;;;;;;;;;;;6.90;99.90;;;;;;5197764;27;41182;-81
2022/02/04 00:33:51;;;;;;;;;;;6.90;99.90;;;;;;5198111;27;19988;-81
2022/02/04 00:36:46;;;;;;;;;;;6.90;99.90;;;;;;5197439;27;39379;-81
2022/02/04 00:39:11;;;;;;;;;;;6.90;99.90;;;;;;5197206;27;40365;-81
2022/02/04 00:41:41;;;;;;;;;;;6.90;99.90;;;;;;5217208;27;20013;-81
2022/02/04 00:44:20;;;;;;;;;;;6.90;99.90;;;;;;5198833;27;19999;-81
2022/02/04 00:52:11;;;;;;;;;;;6.90;99.90;;;;;;5216016;27;36874;-81
2022/02/04 00:54:47;;;;;;;;;;;6.90;99.90;;;;;;5216185;27;37847;-81
2022/02/04 00:57:30;;;;;;;;;;;6.90;99.90;;;;;;5179264;27;42806;-82
2022/02/04 01:27:46;;;;;;;;;;;6.90;99.90;;;;;;5215966;27;44535;-81
2022/02/04 01:30:19;;;;;;;;;;;6.90;99.90;;;;;;5197076;27;35097;-81
2022/02/04 01:32:52;;;;;;;;;;;6.90;99.90;;;;;;5197880;27;19999;-81
2022/02/04 01:35:22;;;;;;;;;;;6.80;99.90;;;;;;5178670;27;42719;-80
2022/02/04 01:37:49;;;;;;;;;;;6.90;99.90;;;;;;5197391;27;20009;-81
2022/02/04 01:40:19;;;;;;;;;;;6.90;99.90;;;;;;5198077;27;20335;-81
2022/02/04 01:42:49;;;;;;;;;;;6.90;99.90;;;;;;5197135;27;37856;-81
2022/02/04 01:45:19;;;;;;;;;;;6.90;99.90;;;;;;5215954;27;26128;-81
2022/02/04 01:47:58;;;;;;;;;;;6.90;99.90;;;;;;5216279;27;35653;-81
2022/02/04 01:50:30;;;;;;;;;;;6.90;99.90;;;;;;5215897;27;43017;-81
2022/02/04 01:52:59;;;;;;;;;;;6.90;99.90;;;;;;5197963;27;20007;-81
2022/02/04 01:55:26;;;;;;;;;;;6.90;99.90;;;;;;5216399;27;20004;-81
2022/02/04 01:57:56;;;;;;;;;;;6.90;99.90;;;;;;5198685;27;20083;-81
2022/02/04 02:00:29;;;;;;;;;;;6.90;99.90;;;;;;5196423;27;39269;-82
2022/02/04 02:03:02;;;;;;;;;;;6.80;99.90;;;;;;5178736;27;38836;-81
2022/02/04 02:05:34;;;;;;;;;;;6.90;99.90;;;;;;5179005;27;46602;-81
2022/02/04 02:08:11;;;;;;;;;;;6.90;99.90;;;;;;5197337;27;20355;-81
2022/02/04 02:10:42;;;;;;;;;;;6.90;99.90;;;;;;5198210;27;40191;-81
2022/02/04 02:51:46;;;;;;;;;;;6.90;99.90;;;;;;5198594;27;20010;-81
2022/02/04 02:59:32;;;;;;;;;;;6.90;99.90;;;;;;5197342;27;42746;-81
2022/02/04 03:02:02;;;;;;;;;;;6.90;99.90;;;;;;5197431;27;41807;-80
2022/02/04 03:04:35;;;;;;;;;;;6.90;99.90;;;;;;5198743;27;20400;-81
2022/02/04 03:07:05;;;;;;;;;;;6.90;99.90;;;;;;5199549;27;20059;-80
2022/02/04 03:09:34;;;;;;;;;;;6.90;99.90;;;;;;5197348;27;40716;-81
2022/02/04 03:12:05;;;;;;;;;;;6.90;99.90;;;;;;5199612;27;19995;-81
2022/02/04 03:14:35;;;;;;;;;;;6.90;99.90;;;;;;5197506;27;31672;-81
2022/02/04 03:17:09;;;;;;;;;;;6.90;99.90;;;;;;5216673;27;41653;-81
2022/02/04 03:19:47;;;;;;;;;;;6.90;99.90;;;;;;5218156;27;20008;-81
2022/02/04 03:22:17;;;;;;;;;;;6.90;99.90;;;;;;5216047;27;20018;-81
2022/02/04 03:24:53;;;;;;;;;;;6.90;99.90;;;;;;5181141;27;20004;-81
2022/02/04 03:27:24;;;;;;;;;;;6.80;99.90;;;;;;5198277;27;20000;-81
2022/02/04 03:30:09;;;;;;;;;;;6.90;99.90;;;;;;5199284;27;20002;-81
2022/02/04 03:32:41;;;;;;;;;;;6.90;99.90;;;;;;5217911;27;19996;-82
2022/02/04 03:35:15;;;;;;;;;;;6.90;99.90;;;;;;5216260;27;43926;-81
2022/02/04 03:37:44;;;;;;;;;;;6.90;99.90;;;;;;5217342;27;21936;-81
2022/02/04 03:40:15;;;;;;;;;;;6.90;99.90;;;;;;5198628;27;20008;-81
2022/02/04 03:42:43;;;;;;;;;;;6.90;99.90;;;;;;5198593;27;19999;-81
2022/02/04 03:45:16;;;;;;;;;;;6.90;99.90;;;;;;5217319;27;19999;-81
2022/02/04 03:47:44;;;;;;;;;;;6.90;99.90;;;;;;5199164;27;20054;-80
2022/02/04 03:50:16;;;;;;;;;;;6.90;99.90;;;;;;5199278;27;20023;-81
2022/02/04 03:52:47;;;;;;;;;;;6.90;99.90;;;;;;5199048;27;20083;-81
2022/02/04 03:55:19;;;;;;;;;;;6.90;99.90;;;;;;5217259;27;19995;-81
2022/02/04 03:57:47;;;;;;;;;;;6.90;99.90;;;;;;5198849;27;19996;-81
2022/02/04 04:00:18;;;;;;;;;;;6.90;99.90;;;;;;5198540;27;20385;-81
2022/02/04 04:02:48;;;;;;;;;;;6.90;99.90;;;;;;5196720;27;44688;-81
2022/02/04 04:05:18;;;;;;;;;;;6.90;99.90;;;;;;5196752;27;39845;-81
2022/02/04 04:07:48;;;;;;;;;;;6.90;99.90;;;;;;5215645;27;40692;-81
2022/02/04 04:10:27;;;;;;;;;;;6.90;99.90;;;;;;5198451;27;20404;-81
2022/02/04 04:12:59;;;;;;;;;;;6.90;99.90;;;;;;5179568;27;40984;-81
2022/02/04 04:15:28;;;;;;;;;;;6.90;99.90;;;;;;5216242;27;44994;-81
2022/02/04 04:18:04;;;;;;;;;;;6.80;99.90;;;;;;5215904;27;30722;-81
2022/02/04 04:20:32;;;;;;;;;;;6.90;99.90;;;;;;5181515;27;20025;-81
2022/02/04 04:23:05;;;;;;;;;;;6.90;99.90;;;;;;5196768;27;44391;-81
2022/02/04 04:25:35;;;;;;;;;;;6.90;99.90;;;;;;5197901;27;20390;-81
2022/02/04 04:28:05;;;;;;;;;;;6.90;99.90;;;;;;5196482;27;44946;-81
2022/02/04 04:30:37;;;;;;;;;;;6.90;99.90;;;;;;5198032;27;41955;-80
2022/02/04 04:33:10;;;;;;;;;;;6.90;99.90;;;;;;5216017;27;43272;-81
2022/02/04 04:35:38;;;;;;;;;;;6.90;99.90;;;;;;5216083;27;35717;-81
2022/02/04 05:30:21;;;;;;;;;;;6.90;99.90;;;;;;5216561;27;20002;-80
2022/02/04 05:32:56;;;;;;;;;;;6.90;99.90;;;;;;5198337;27;20036;-80
2022/02/04 05:35:26;;;;;;;;;;;6.90;99.90;;;;;;5197517;27;44711;-81
2022/02/04 05:37:57;;;;;;;;;;;6.90;99.90;;;;;;5179413;27;34031;-81
2022/02/04 05:40:28;;;;;;;;;;;6.90;99.90;;;;;;5196671;27;35238;-81
2022/02/04 05:43:05;;;;;;;;;;;6.90;99.90;;;;;;5217222;27;20407;-81
2022/02/04 05:45:36;;;;;;;;;;;6.90;99.90;;;;;;5218590;27;20029;-80
2022/02/04 05:48:09;;;;;;;;;;;6.90;99.90;;;;;;5200035;27;20456;-80
2022/02/04 05:53:24;;;;;;;;;;;6.90;99.90;;;;;;5219090;27;20013;-81
2022/02/04 05:56:17;;;;;;;;;;;6.90;99.90;;;;;;5200737;27;20391;-80
2022/02/04 06:01:35;;;;;;;;;;;6.90;99.90;;;;;;5199799;27;20042;-80
2022/02/04 06:04:34;;;;;;;;;;;6.90;99.90;;;;;;5200365;27;20011;-81
2022/02/04 06:23:02;;;;;;;;;;;6.90;99.90;;;;;;5219396;27;20031;-80
2022/02/04 06:25:37;;;;;;;;;;;6.90;99.90;;;;;;5200747;27;20035;-80
2022/02/04 06:28:15;;;;;;;;;;;6.90;99.90;;;;;;5200996;27;19998;-81
2022/02/04 06:30:49;;;;;;;;;;;6.90;99.90;;;;;;5182274;27;19992;-81
2022/02/04 06:33:20;;;;;;;;;;;6.90;99.90;;;;;;5219438;27;20000;-81
2022/02/04 06:35:56;;;;;;;;;;;6.90;99.90;;;;;;5199610;27;20029;-81
2022/02/04 06:38:23;;;;;;;;;;;6.90;99.90;;;;;;5219175;27;19996;-81
2022/02/04 06:40:54;;;;;;;;;;;6.90;99.90;;;;;;5199554;27;20006;-81
2022/02/04 06:43:27;;;;;;;;;;;6.90;99.90;;;;;;5181333;27;45360;-81
2022/02/04 06:45:54;;;;;;;;;;;6.90;99.90;;;;;;5199110;27;43891;-81
2022/02/04 06:48:25;;;;;;;;;;;6.90;99.90;;;;;;5200391;27;20022;-83
2022/02/04 06:50:52;;;;;;;;;;;6.90;99.90;;;;;;5217659;27;44044;-81
2022/02/04 06:53:23;;;;;;;;;;;6.90;99.90;;;;;;5218213;27;35589;-81
2022/02/04 06:55:53;;;;;;;;;;;6.90;99.90;;;;;;5199860;27;19992;-80
2022/02/04 06:58:23;;;;;;;;;;;6.90;99.90;;;;;;5216655;27;41545;-80
2022/02/04 07:00:50;;;;;;;;;;;6.90;99.90;;;;;;5197190;27;40662;-81
2022/02/04 07:03:23;;;;;;;;;;;6.90;99.90;;;;;;5197095;27;42057;-81
2022/02/04 07:05:56;;;;;;;;;;;6.90;99.90;;;;;;5180243;27;35270;-81
2022/02/04 07:17:08;;;;;;;;;;;6.90;99.90;;;;;;5216612;27;44932;-81
2022/02/04 07:19:46;;;;;;;;;;;6.90;99.90;;;;;;5198007;27;32663;-81
2022/02/04 07:22:21;;;;;;;;;;;6.90;99.90;;;;;;5197143;27;46415;-81
2022/02/04 07:24:56;;;;;;;;;;;6.90;99.90;;;;;;5216787;27;36419;-80
2022/02/04 07:27:28;;;;;;;;;;;6.90;99.90;;;;;;5217434;27;20000;-80
2022/02/04 07:30:01;;;;;;;;;;;6.90;99.90;;;;;;5179818;27;35673;-81
2022/02/04 07:32:43;;;;;;;;;;;6.90;99.90;;;;;;5216858;27;31808;-81
2022/02/04 07:43:20;;;;;;;;;;;6.90;99.90;;;;;;5216125;27;43720;-81
2022/02/04 07:45:51;;;;;;;;;;;6.90;99.90;;;;;;5197215;27;36658;-81
2022/02/04 07:48:23;;;;;;;;;;;6.90;99.90;;;;;;5197261;27;37008;-81
2022/02/04 07:50:59;;;;;;;;;;;6.90;99.90;;;;;;5179842;27;35134;-81
2022/02/04 07:53:34;;;;;;;;;;;6.90;99.90;;;;;;5198931;27;22326;-81
2022/02/04 07:56:07;;;;;;;;;;;6.90;99.90;;;;;;5198880;27;19998;-81
2022/02/04 07:58:39;;;;;;;;;;;6.90;99.90;;;;;;5197884;27;27520;-81
2022/02/04 08:01:09;;;;;;;;;;;6.90;99.90;;;;;;5180086;27;34656;-81
2022/02/04 08:03:43;;;;;;;;;;;6.90;99.90;;;;;;5216598;27;32984;-81
2022/02/04 08:06:15;;;;;;;;;;;6.90;99.90;;;;;;5198000;27;40520;-81
2022/02/04 08:09:01;;;;;;;;;;;6.90;99.90;;;;;;5216245;27;39443;-81
2022/02/04 08:11:52;;;;;;;;;;;6.90;99.90;;;;;;5198742;27;19996;-81
2022/02/04 08:14:46;;;;;;;;;;;6.90;99.90;;;;;;5217765;27;20009;-81
2022/02/04 08:17:37;;;;;;;;;;;6.90;99.90;;;;;;5198736;27;19994;-81
2022/02/04 08:25:51;;;;;;;;;;;6.90;99.90;;;;;;5216839;27;20784;-81
2022/02/04 08:55:54;;;;;;;;;;;7.00;99.90;;;;;;5197835;27;19995;-81
2022/02/04 08:58:44;;;;;;;;;;;7.00;99.90;;;;;;5198125;27;20074;-81
2022/02/04 09:01:09;;;;;;;;;;;7.00;99.90;;;;;;5216693;27;20376;-81
2022/02/04 09:06:18;;;;;;;;;;;7.00;99.90;;;;;;5197809;27;20392;-81
2022/02/04 09:08:55;;;;;;;;;;;7.00;99.90;;;;;;5198366;27;20377;-81
2022/02/04 09:19:58;;;;;;;;;;;7.00;99.90;;;;;;5216692;27;20088;-81
2022/02/04 09:22:39;;;;;;;;;;;7.10;99.90;;;;;;5180992;27;20000;-81
2022/02/04 09:25:06;;;;;;;;;;;7.00;99.90;;;;;;5197705;27;19992;-81
2022/02/04 09:27:37;;;;;;;;;;;7.10;99.90;;;;;;5197742;27;20000;-81
2022/02/04 09:30:06;;;;;;;;;;;7.00;99.90;;;;;;5180650;27;19992;-81
2022/02/04 09:32:42;;;;;;;;;;;7.10;99.90;;;;;;5197964;27;19995;-81
2022/02/04 09:35:10;;;;;;;;;;;7.10;99.90;;;;;;5198236;27;19996;-81
2022/02/04 09:37:42;;;;;;;;;;;7.10;99.90;;;;;;5216425;27;20003;-80
2022/02/04 09:40:10;;;;;;;;;;;7.10;99.90;;;;;;5180607;27;20057;-81
2022/02/04 09:42:38;;;;;;;;;;;7.10;99.90;;;;;;5179830;27;19988;-81
2022/02/04 09:45:06;;;;;;;;;;;7.10;99.90;;;;;;5179923;27;19996;-81
2022/02/04 09:47:36;;;;;;;;;;;7.10;99.90;;;;;;5179713;27;19992;-80
2022/02/04 09:50:10;;;;;;;;;;;7.10;99.90;;;;;;5198793;27;20029;-81
2022/02/04 10:07:14;;;;;;;;;;;7.10;99.90;;;;;;5196425;27;35596;-81
2022/02/04 10:10:47;;;;;;;;;;;7.10;99.90;;;;;;5196658;27;38915;-81
2022/02/04 10:12:58;;;;;;;;;;;7.10;99.90;;;;;;5201147;27;39138;-81
2022/02/04 10:18:09;;;;;;;;;;;7.10;99.90;;;;;;5215627;27;42169;-81
2022/02/04 10:20:38;;;;;;;;;;;7.10;99.90;;;;;;5198294;27;20046;-80
2022/02/04 10:23:05;;;;;;;;;;;7.10;99.90;;;;;;5179900;27;20002;-80
2022/02/04 10:25:50;;;;;;;;;;;7.10;99.90;;;;;;5216348;27;20000;-81
2022/02/04 10:28:19;;;;;;;;;;;7.10;99.90;;;;;;5217026;27;20043;-81
2022/02/04 10:31:02;;;;;;;;;;;7.10;99.90;;;;;;5197269;27;19998;-80
2022/02/04 10:33:29;;;;;;;;;;;7.10;99.90;;;;;;5217754;27;20047;-81
2022/02/04 10:35:57;;;;;;;;;;;7.10;99.90;;;;;;5181390;27;19995;-81
2022/02/04 10:38:43;;;;;;;;;;;7.10;99.90;;;;;;5217530;27;19996;-81
2022/02/04 10:41:24;;;;;;;;;;;7.10;99.90;;;;;;5217978;27;20002;-80
2022/02/04 10:53:04;;;;;;;;;;;7.20;99.90;;;;;;5217338;27;20051;-81
2022/02/04 11:10:46;;;;;;;;;;;7.10;99.90;;;;;;5218154;27;20047;-80
2022/02/04 11:33:47;;;;;;;;;;;7.20;99.90;;;;;;5217685;27;19992;-81
2022/02/04 11:35:50;;;;;;;;;;;7.10;99.90;;;;;;5184013;27;19996;-81
2022/02/04 11:55:09;;;;;;;;;;;7.20;99.90;;;;;;5216395;27;42708;-81
2022/02/04 11:57:58;;;;;;;;;;;7.10;99.90;;;;;;5216627;27;36977;-81
2022/02/04 12:00:34;;;;;;;;;;;7.20;99.90;;;;;;5217010;27;26248;-81
2022/02/04 12:03:26;;;;;;;;;;;7.20;99.90;;;;;;5176200;27;35064;-80
2022/02/04 12:05:54;;;;;;;;;;;7.20;99.90;;;;;;5160264;27;19995;-81
2022/02/04 12:08:30;;;;;;;;;;;7.20;99.90;;;;;;5193838;27;41553;-80
2022/02/04 12:10:58;;;;;;;;;;;7.20;99.90;;;;;;5194319;27;31495;-81
2022/02/04 12:13:26;;;;;;;;;;;7.20;99.90;;;;;;5193545;27;44024;-81
2022/02/04 12:16:04;;;;;;;;;;;7.20;99.90;;;;;;5194281;27;35070;-81
2022/02/04 12:18:37;;;;;;;;;;;7.20;99.90;;;;;;5195315;27;36150;-81
2022/02/04 12:21:11;;;;;;;;;;;7.20;99.90;;;;;;5177239;27;19992;-80
2022/02/04 12:23:43;;;;;;;;;;;7.20;99.90;;;;;;5195261;27;20036;-80
2022/02/04 12:26:33;;;;;;;;;;;7.30;99.90;;;;;;5176540;27;35622;-81
2022/02/04 12:29:06;;;;;;;;;;;7.20;99.90;;;;;;5194797;27;41100;-81
2022/02/04 12:31:35;;;;;;;;;;;7.30;99.90;;;;;;5194260;27;37437;-80
2022/02/04 12:34:11;;;;;;;;;;;7.30;99.90;;;;;;5176991;27;20412;-80
2022/02/04 12:36:42;;;;;;;;;;;7.30;99.90;;;;;;5194638;27;20046;-80
2022/02/04 12:39:15;;;;;;;;;;;7.30;99.90;;;;;;5195111;27;20007;-81
2022/02/04 12:41:50;;;;;;;;;;;7.20;99.90;;;;;;5194553;27;20003;-80
2022/02/04 12:44:22;;;;;;;;;;;7.30;99.90;;;;;;5198588;27;19995;-82
2022/02/04 12:47:03;;;;;;;;;;;7.30;99.90;;;;;;5194938;27;20051;-81
2022/02/04 12:49:44;;;;;;;;;;;7.30;99.90;;;;;;5194925;27;19998;-82
2022/02/04 12:54:55;;;;;;;;;;;7.30;99.90;;;;;;5193009;27;43850;-81
2022/02/04 12:57:42;;;;;;;;;;;7.30;99.90;;;;;;5193190;27;43760;-82
2022/02/04 13:11:43;;;;;;;;;;;7.30;99.90;;;;;;5192551;27;44335;-82
2022/02/04 13:14:25;;;;;;;;;;;7.30;99.90;;;;;;5193988;27;29721;-81
2022/02/04 13:16:58;;;;;;;;;;;7.30;99.90;;;;;;5194998;27;32706;-82
2022/02/04 13:19:26;;;;;;;;;;;7.30;99.90;;;;;;5193381;27;38090;-82
2022/02/04 13:21:59;;;;;;;;;;;7.30;99.90;;;;;;5194297;27;36128;-81
2022/02/04 13:24:26;;;;;;;;;;;7.30;99.90;;;;;;5192975;27;37386;-81
2022/02/04 13:26:54;;;;;;;;;;;7.30;99.90;;;;;;5193252;27;37876;-81
2022/02/04 13:29:27;;;;;;;;;;;7.30;99.90;;;;;;5193486;27;28915;-81
2022/02/04 13:32:00;;;;;;;;;;;7.30;99.90;;;;;;5195023;27;30267;-81
2022/02/04 13:34:33;;;;;;;;;;;7.30;99.90;;;;;;5193818;27;39753;-82
2022/02/04 13:37:05;;;;;;;;;;;7.30;99.90;;;;;;5176407;27;24577;-81
2022/02/04 13:39:59;;;;;;;;;;;7.30;99.90;;;;;;5194921;27;33767;-83
2022/02/04 13:42:47;;;;;;;;;;;7.40;99.90;;;;;;5192623;27;42182;-82
2022/02/04 13:45:43;;;;;;;;;;;7.40;99.90;;;;;;5175566;27;42414;-82
2022/02/04 13:48:17;;;;;;;;;;;7.40;99.90;;;;;;5193523;27;38089;-82
2022/02/04 13:51:03;;;;;;;;;;;7.40;99.90;;;;;;5175935;27;28617;-82
2022/02/04 13:54:05;;;;;;;;;;;7.40;99.90;;;;;;5195608;27;20069;-82
2022/02/04 14:00:41;;;;;;;;;;;7.40;99.90;;;;;;5195644;27;20446;-81
2022/02/04 14:03:36;;;;;;;;;;;7.40;99.90;;;;;;5194278;27;20049;-82
2022/02/04 14:06:30;;;;;;;;;;;7.50;99.90;;;;;;5195398;27;20000;-82
2022/02/04 14:09:21;;;;;;;;;;;7.40;99.90;;;;;;5195766;27;20414;-82
2022/02/04 14:12:19;;;;;;;;;;;7.50;99.90;;;;;;5197062;27;19988;-81
2022/02/04 14:15:11;;;;;;;;;;;7.50;99.90;;;;;;5195647;27;20003;-82
2022/02/04 14:18:06;;;;;;;;;;;7.50;99.90;;;;;;5197069;27;20349;-82
2022/02/04 14:20:55;;;;;;;;;;;7.50;99.90;;;;;;5195821;27;20464;-82
2022/02/04 14:23:50;;;;;;;;;;;7.50;99.90;;;;;;5195533;27;20007;-82
2022/02/04 14:26:40;;;;;;;;;;;7.50;99.90;;;;;;5196978;27;20025;-81
2022/02/04 14:29:32;;;;;;;;;;;7.50;99.90;;;;;;5195640;27;20026;-82
2022/02/04 14:32:29;;;;;;;;;;;7.50;99.90;;;;;;5196704;27;20383;-82
2022/02/04 14:35:33;;;;;;;;;;;7.50;99.90;;;;;;5196780;27;20391;-82
2022/02/04 15:03:03;;;;;;;;;;;7.50;99.90;;;;;;5196363;27;20034;-81
2022/02/04 15:09:10;;;;;;;;;;;7.50;99.90;;;;;;5196696;27;20026;-82
2022/02/04 15:11:56;;;;;;;;;;;7.50;99.90;;;;;;5195389;27;19999;-82
2022/02/04 15:14:42;;;;;;;;;;;7.50;99.90;;;;;;5195786;27;19999;-81
2022/02/04 15:17:31;;;;;;;;;;;7.50;99.90;;;;;;5195076;27;20031;-83
2022/02/04 15:20:18;;;;;;;;;;;7.50;99.90;;;;;;5196414;27;19995;-82
2022/02/04 15:23:08;;;;;;;;;;;7.50;99.90;;;;;;5197120;27;19999;-82
2022/02/04 15:25:56;;;;;;;;;;;7.50;99.90;;;;;;5195443;27;20435;-82
2022/02/04 15:28:49;;;;;;;;;;;7.50;99.90;;;;;;5196380;27;19999;-81
2022/02/04 15:31:44;;;;;;;;;;;7.50;99.90;;;;;;5196373;27;20034;-82
2022/02/04 15:34:30;;;;;;;;;;;7.50;99.90;;;;;;5195180;27;20054;-82
2022/02/04 15:37:16;;;;;;;;;;;7.50;99.90;;;;;;5195090;27;20414;-81
2022/02/04 15:40:05;;;;;;;;;;;7.50;99.90;;;;;;5196417;27;20036;-81
2022/02/04 15:42:57;;;;;;;;;;;7.50;99.90;;;;;;5195154;27;20420;-81
2022/02/04 15:49:02;;;;;;;;;;;7.50;99.90;;;;;;5196557;27;19999;-80
2022/02/04 15:58:40;;;;;;;;;;;7.50;99.90;;;;;;5196234;27;20061;-80
2022/02/04 16:03:52;;;;;;;;;;;7.50;99.90;;;;;;5196104;27;19999;-79
2022/02/04 16:06:38;;;;;;;;;;;7.40;99.90;;;;;;5194808;27;20003;-80
2022/02/04 16:09:27;;;;;;;;;;;7.30;99.90;;;;;;5196235;27;19999;-80
2022/02/04 16:12:27;;;;;;;;;;;7.30;99.90;;;;;;5194871;27;19998;-80
2022/02/04 16:15:32;;;;;;;;;;;7.30;99.90;;;;;;5196020;27;20419;-80
2022/02/04 16:18:26;;;;;;;;;;;7.30;99.90;;;;;;5196130;27;19995;-79
2022/02/04 16:21:22;;;;;;;;;;;7.20;99.90;;;;;;5195961;27;20007;-80
2022/02/04 16:30:06;;;;;;;;;;;7.10;99.90;;;;;;5196025;27;20051;-80
2022/02/04 16:32:52;;;;;;;;;;;7.10;99.90;;;;;;5196079;27;19991;-80
2022/02/04 16:35:38;;;;;;;;;;;7.10;99.90;;;;;;5194683;27;20028;-80
2022/02/04 16:38:27;;;;;;;;;;;7.00;99.90;;;;;;5194911;27;19994;-79
2022/02/04 16:41:19;;;;;;;;;;;7.00;99.90;;;;;;5194715;27;20356;-79
2022/02/04 16:44:10;;;;;;;;;;;7.00;99.90;;;;;;5194578;27;20039;-79
2022/02/04 16:46:58;;;;;;;;;;;7.00;99.90;;;;;;5194682;27;20029;-80
2022/02/04 16:49:43;;;;;;;;;;;6.90;99.90;;;;;;5195918;27;20024;-79
2022/02/04 16:52:33;;;;;;;;;;;6.90;99.90;;;;;;5194540;27;19991;-79
2022/02/04 16:55:25;;;;;;;;;;;6.90;99.90;;;;;;5194961;27;20085;-79
2022/02/04 16:58:20;;;;;;;;;;;6.90;99.90;;;;;;5195517;27;20054;-79
2022/02/04 17:01:06;;;;;;;;;;;6.90;99.90;;;;;;5195583;27;19999;-80
2022/02/04 17:03:52;;;;;;;;;;;6.90;99.90;;;;;;5194581;27;20010;-80
2022/02/04 17:06:45;;;;;;;;;;;6.90;99.90;;;;;;5194878;27;20026;-79
2022/02/04 17:09:36;;;;;;;;;;;6.90;99.90;;;;;;5195853;27;20503;-79
2022/02/04 17:12:28;;;;;;;;;;;6.80;99.90;;;;;;5195627;27;20026;-79
2022/02/04 17:15:14;;;;;;;;;;;6.80;99.90;;;;;;5194432;27;19992;-79
2022/02/04 17:18:04;;;;;;;;;;;6.80;99.90;;;;;;5194435;27;20553;-79
2022/02/04 17:20:50;;;;;;;;;;;6.80;99.90;;;;;;5195865;27;20026;-79
2022/02/04 17:23:43;;;;;;;;;;;6.80;99.90;;;;;;5194628;27;20452;-80
2022/02/04 17:26:29;;;;;;;;;;;6.80;99.90;;;;;;5195509;27;20349;-79
2022/02/04 17:29:18;;;;;;;;;;;6.80;99.90;;;;;;5194597;27;19994;-79
2022/02/04 17:32:05;;;;;;;;;;;6.80;99.90;;;;;;5195490;27;20026;-79
2022/02/04 17:34:54;;;;;;;;;;;6.70;99.90;;;;;;5194655;27;20038;-79
2022/02/04 17:37:46;;;;;;;;;;;6.80;99.90;;;;;;5194409;27;20015;-79
2022/02/04 17:40:33;;;;;;;;;;;6.70;99.90;;;;;;5194189;27;20002;-79
2022/02/04 17:43:22;;;;;;;;;;;6.70;99.90;;;;;;5195418;27;19996;-80
2022/02/04 17:46:08;;;;;;;;;;;6.70;99.90;;;;;;5194425;27;20015;-79
2022/02/04 17:49:07;;;;;;;;;;;6.70;99.90;;;;;;5194135;27;20446;-79
2022/02/04 17:52:13;;;;;;;;;;;6.70;99.90;;;;;;5193975;27;20036;-79
2022/02/04 17:55:08;;;;;;;;;;;6.70;99.90;;;;;;5195297;27;20026;-79
2022/02/04 17:57:57;;;;;;;;;;;6.70;99.90;;;;;;5194363;27;20033;-79
2022/02/04 18:09:42;;;;;;;;;;;6.60;99.90;;;;;;5195109;27;20081;-79
2022/02/04 18:12:34;;;;;;;;;;;6.60;99.90;;;;;;5194361;27;19995;-79
2022/02/04 18:15:20;;;;;;;;;;;6.60;99.90;;;;;;5195374;27;19995;-79
2022/02/04 18:18:07;;;;;;;;;;;6.50;99.90;;;;;;5194260;27;20412;-79
2022/02/04 18:20:56;;;;;;;;;;;6.50;99.90;;;;;;5194356;27;19994;-79
2022/02/04 18:23:42;;;;;;;;;;;6.50;99.90;;;;;;5194486;27;20381;-79
2022/02/04 18:26:31;;;;;;;;;;;6.50;99.90;;;;;;5195367;27;19990;-79
2022/02/04 18:29:17;;;;;;;;;;;6.40;99.90;;;;;;5194372;27;20030;-80
2022/02/04 18:32:05;;;;;;;;;;;6.40;99.90;;;;;;5195526;27;20431;-79
2022/02/04 18:34:51;;;;;;;;;;;6.40;99.90;;;;;;5194127;27;20055;-79
2022/02/04 18:37:41;;;;;;;;;;;6.40;99.90;;;;;;5195526;27;19991;-79
2022/02/04 18:57:59;;;;;;;;;;;6.30;99.90;;;;;;5196439;27;19994;-79
2022/02/04 19:03:38;;;;;;;;;;;6.30;99.90;;;;;;5134986;28;20008;-79
2022/02/04 19:06:31;;;;;;;;;;;6.30;99.90;;;;;;5133182;28;20041;-79
2022/02/04 19:09:18;;;;;;;;;;;6.30;99.90;;;;;;5133044;28;19996;-79
2022/02/04 19:12:13;;;;;;;;;;;6.30;99.90;;;;;;5147407;27;20004;-79
2022/02/04 19:15:22;;;;;;;;;;;6.20;99.90;;;;;;5132913;28;19991;-79
2022/02/04 19:18:11;;;;;;;;;;;6.20;99.90;;;;;;5134001;28;20044;-79
2022/02/04 19:21:11;;;;;;;;;;;6.20;99.90;;;;;;5132850;28;20039;-79
2022/02/04 19:24:02;;;;;;;;;;;6.20;99.90;;;;;;5133783;28;20420;-79
2022/02/04 19:26:49;;;;;;;;;;;6.20;99.90;;;;;;5132785;28;19996;-79
2022/02/04 19:29:45;;;;;;;;;;;6.20;99.90;;;;;;5133333;27;19996;-79
2022/02/04 19:32:33;;;;;;;;;;;6.20;99.90;;;;;;5132949;28;20028;-79
2022/02/04 19:35:19;;;;;;;;;;;6.20;99.90;;;;;;5133755;28;20361;-80
2022/02/04 19:38:08;;;;;;;;;;;6.10;99.90;;;;;;5132872;28;20039;-79
2022/02/04 19:40:55;;;;;;;;;;;6.10;99.90;;;;;;5132777;28;20031;-79
2022/02/04 19:43:55;;;;;;;;;;;6.10;99.90;;;;;;5134092;28;20027;-79
2022/02/04 19:46:41;;;;;;;;;;;6.10;99.90;;;;;;5147287;27;19999;-79
2022/02/04 19:50:24;;;;;;;;;;;6.10;99.90;;;;;;5133773;28;20037;-79
2022/02/04 19:53:34;;;;;;;;;;;6.10;99.90;;;;;;5133789;28;20024;-79
2022/02/04 20:23:48;;;;;;;;;;;6.00;99.90;;;;;;5175274;27;20027;-79
2022/02/04 20:26:35;;;;;;;;;;;5.90;99.90;;;;;;5175258;27;20022;-79
2022/02/04 20:29:22;;;;;;;;;;;5.90;99.90;;;;;;5159388;27;20034;-80
2022/02/04 20:32:17;;;;;;;;;;;5.90;99.90;;;;;;5175192;27;20432;-79
2022/02/04 20:35:03;;;;;;;;;;;5.90;99.90;;;;;;5159404;27;20034;-79
2022/02/04 20:37:53;;;;;;;;;;;5.90;99.90;;;;;;5159742;27;20428;-80
2022/02/04 20:40:54;;;;;;;;;;;5.90;99.90;;;;;;5174819;27;20036;-79
2022/02/04 20:43:42;;;;;;;;;;;5.90;99.90;;;;;;5173853;27;20002;-79
2022/02/04 20:46:31;;;;;;;;;;;5.90;99.90;;;;;;5159238;27;20000;-80
2022/02/04 20:49:17;;;;;;;;;;;5.80;99.90;;;;;;5175005;27;20039;-79
2022/02/04 20:52:03;;;;;;;;;;;5.80;99.90;;;;;;5174903;27;19995;-80
2022/02/04 20:54:52;;;;;;;;;;;5.80;99.90;;;;;;5159336;27;20062;-79
2022/02/04 20:57:41;;;;;;;;;;;5.80;99.90;;;;;;5173774;27;20446;-79
2022/02/04 21:00:31;;;;;;;;;;;5.80;99.90;;;;;;5174617;27;20015;-79
2022/02/04 21:03:17;;;;;;;;;;;5.80;99.90;;;;;;5159082;27;20099;-79
2022/02/04 21:06:17;;;;;;;;;;;5.70;99.90;;;;;;5159326;27;19995;-79
2022/02/04 21:15:21;;;;;;;;;;;5.70;99.90;;;;;;5109892;28;20042;-79
2022/02/04 21:18:10;;;;;;;;;;;5.70;99.90;;;;;;5110163;28;20041;-79
2022/02/04 21:20:59;;;;;;;;;;;5.70;99.90;;;;;;5167003;27;20063;-79
2022/02/04 21:23:45;;;;;;;;;;;5.70;99.90;;;;;;5159168;27;20384;-80
2022/02/04 21:26:31;;;;;;;;;;;5.70;99.90;;;;;;5173668;27;19999;-79
2022/02/04 21:29:18;;;;;;;;;;;5.70;99.90;;;;;;5159123;27;20420;-79
2022/02/04 21:32:04;;;;;;;;;;;5.70;99.90;;;;;;5173515;27;20003;-79
2022/02/04 21:38:04;;;;;;;;;;;5.70;99.90;;;;;;5174805;27;20003;-79
2022/02/04 21:40:50;;;;;;;;;;;5.70;99.90;;;;;;5174808;27;20023;-79
2022/02/04 21:43:39;;;;;;;;;;;5.70;99.90;;;;;;5173717;27;20041;-79
2022/02/04 21:46:28;;;;;;;;;;;5.70;99.90;;;;;;5158939;27;20471;-79
2022/02/04 21:49:14;;;;;;;;;;;5.70;99.90;;;;;;5159062;27;20010;-79
2022/02/04 21:52:00;;;;;;;;;;;5.70;99.90;;;;;;5174649;27;20449;-79
2022/02/04 21:54:49;;;;;;;;;;;5.70;99.90;;;;;;5173299;27;20431;-79
2022/02/04 21:57:36;;;;;;;;;;;5.70;99.90;;;;;;5174690;27;19996;-79
2022/02/04 22:00:23;;;;;;;;;;;5.60;99.90;;;;;;5174600;27;20001;-79
2022/02/04 22:03:11;;;;;;;;;;;5.60;99.90;;;;;;5158802;27;20027;-79
2022/02/04 22:06:05;;;;;;;;;;;5.60;99.90;;;;;;5159621;27;20044;-79
2022/02/04 22:08:59;;;;;;;;;;;5.60;99.90;;;;;;5158862;27;20415;-79
2022/02/04 22:17:45;;;;;;;;;;;5.60;99.90;;;;;;5174440;27;20402;-79
2022/02/04 22:23:39;;;;;;;;;;;5.60;99.90;;;;;;5174549;27;20034;-79
2022/02/04 22:26:28;;;;;;;;;;;5.60;99.90;;;;;;5173685;27;19995;-79
2022/02/04 22:29:17;;;;;;;;;;;5.60;99.90;;;;;;5174859;27;20455;-79
2022/02/04 22:32:14;;;;;;;;;;;5.60;99.90;;;;;;5160229;27;19995;-79
2022/02/04 22:41:58;;;;;;;;;;;5.60;99.90;;;;;;5175617;27;20400;-79
2022/02/04 22:51:36;;;;;;;;;;;5.60;99.90;;;;;;5175776;27;20006;-79
2022/02/04 22:59:57;;;;;;;;;;;5.50;99.90;;;;;;5175579;27;20010;-79
2022/02/04 23:02:45;;;;;;;;;;;5.50;99.90;;;;;;5175520;27;20044;-80
2022/02/04 23:05:36;;;;;;;;;;;5.50;99.90;;;;;;5175792;27;20007;-79
2022/02/04 23:08:33;;;;;;;;;;;5.50;99.90;;;;;;5175503;27;20000;-79
2022/02/04 23:11:24;;;;;;;;;;;5.50;99.90;;;;;;5174579;27;20424;-78
2022/02/04 23:14:22;;;;;;;;;;;5.50;99.90;;;;;;5159917;27;19998;-78
2022/02/04 23:17:23;;;;;;;;;;;5.50;99.90;;;;;;5175633;27;20041;-79
2022/02/04 23:20:15;;;;;;;;;;;5.50;99.90;;;;;;5159769;27;20003;-78
2022/02/04 23:23:10;;;;;;;;;;;5.50;99.90;;;;;;5174344;27;20030;-79
2022/02/04 23:26:08;;;;;;;;;;;5.50;99.90;;;;;;5175763;27;20003;-79
2022/02/04 23:29:14;;;;;;;;;;;5.50;99.90;;;;;;5175336;27;20030;-79
2022/02/04 23:50:00;;;;;;;;;;;5.40;99.90;;;;;;5175315;27;20034;-79
2022/02/04 23:52:46;;;;;;;;;;;5.40;99.90;;;;;;5175434;27;20040;-79
2022/02/04 23:55:34;;;;;;;;;;;5.40;99.90;;;;;;5174126;27;19999;-79
2022/02/04 23:58:25;;;;;;;;;;;5.40;99.90;;;;;;5175331;27;20030;-79
